sensor_id;sensor_type;location;lat;lon;timestamp;pressure;altitude;pressure_sealevel;temperature
78905;BMP280;68291;49.602;8.722;2023-10-19T00:01:49;97790.75;;;15.64
78905;BMP280;68291;49.602;8.722;2023-10-19T00:04:49;97793.34;;;15.64
78905;BMP280;68291;49.602;8.722;2023-10-19T00:07:37;97793.34;;;15.64
78905;BMP280;68291;49.602;8.722;2023-10-19T00:11:27;97792.50;;;15.63
78905;BMP280;68291;49.602;8.722;2023-10-19T00:14:03;97784.72;;;15.63
78905;BMP280;68291;49.602;8.722;2023-10-19T00:16:51;97794.97;;;15.65
78905;BMP280;68291;49.602;8.722;2023-10-19T00:19:37;97795.78;;;15.65
78905;BMP280;68291;49.602;8.722;2023-10-19T00:22:33;97806.44;;;15.62
78905;BMP280;68291;49.602;8.722;2023-10-19T00:25:19;97811.63;;;15.62
78905;BMP280;68291;49.602;8.722;2023-10-19T00:28:14;97816.28;;;15.59
78905;BMP280;68291;49.602;8.722;2023-10-19T00:31:06;97817.25;;;15.58
78905;BMP280;68291;49.602;8.722;2023-10-19T00:33:52;97812.19;;;15.56
78905;BMP280;68291;49.602;8.722;2023-10-19T00:36:35;97808.66;;;15.57
78905;BMP280;68291;49.602;8.722;2023-10-19T00:39:29;97801.56;;;15.59
78905;BMP280;68291;49.602;8.722;2023-10-19T00:42:28;97800.59;;;15.60
78905;BMP280;68291;49.602;8.722;2023-10-19T00:45:44;97788.16;;;15.64
78905;BMP280;68291;49.602;8.722;2023-10-19T00:48:17;97778.31;;;15.67
78905;BMP280;68291;49.602;8.722;2023-10-19T00:50:55;97782.38;;;15.70
78905;BMP280;68291;49.602;8.722;2023-10-19T00:53:58;97781.31;;;15.72
78905;BMP280;68291;49.602;8.722;2023-10-19T00:57:11;97774.84;;;15.76
78905;BMP280;68291;49.602;8.722;2023-10-19T00:59:53;97769.22;;;15.80
78905;BMP280;68291;49.602;8.722;2023-10-19T01:02:59;97766.22;;;15.85
78905;BMP280;68291;49.602;8.722;2023-10-19T01:05:45;97764.28;;;15.87
78905;BMP280;68291;49.602;8.722;2023-10-19T01:08:27;97758.00;;;15.89
78905;BMP280;68291;49.602;8.722;2023-10-19T01:11:14;97747.78;;;15.88
78905;BMP280;68291;49.602;8.722;2023-10-19T01:14:22;97744.63;;;15.84
78905;BMP280;68291;49.602;8.722;2023-10-19T01:17:31;97745.47;;;15.85
78905;BMP280;68291;49.602;8.722;2023-10-19T01:20:16;97743.53;;;15.87
78905;BMP280;68291;49.602;8.722;2023-10-19T01:23:30;97746.13;;;15.87
78905;BMP280;68291;49.602;8.722;2023-10-19T01:26:26;97736.56;;;15.87
78905;BMP280;68291;49.602;8.722;2023-10-19T01:29:12;97736.16;;;15.92
78905;BMP280;68291;49.602;8.722;2023-10-19T01:32:02;97728.06;;;15.95
78905;BMP280;68291;49.602;8.722;2023-10-19T01:34:57;97730.38;;;15.98
78905;BMP280;68291;49.602;8.722;2023-10-19T01:38:06;97730.38;;;15.98
78905;BMP280;68291;49.602;8.722;2023-10-19T01:40:53;97731.03;;;16.00
78905;BMP280;68291;49.602;8.722;2023-10-19T01:43:52;97721.63;;;15.99
78905;BMP280;68291;49.602;8.722;2023-10-19T01:47:18;97722.66;;;16.06
78905;BMP280;68291;49.602;8.722;2023-10-19T01:49:59;97726.06;;;16.15
78905;BMP280;68291;49.602;8.722;2023-10-19T01:53:00;97716.59;;;16.24
78905;BMP280;68291;49.602;8.722;2023-10-19T01:55:43;97713.22;;;16.31
78905;BMP280;68291;49.602;8.722;2023-10-19T01:58:53;97706.78;;;16.35
78905;BMP280;68291;49.602;8.722;2023-10-19T02:01:43;97708.81;;;16.41
78905;BMP280;68291;49.602;8.722;2023-10-19T02:04:15;97713.38;;;16.47
78905;BMP280;68291;49.602;8.722;2023-10-19T02:07:11;97707.91;;;16.50
78905;BMP280;68291;49.602;8.722;2023-10-19T02:09:52;97705.97;;;16.52
78905;BMP280;68291;49.602;8.722;2023-10-19T02:12:47;97700.78;;;16.52
78905;BMP280;68291;49.602;8.722;2023-10-19T02:16:27;97702.56;;;16.51
78905;BMP280;68291;49.602;8.722;2023-10-19T02:19:21;97691.19;;;16.52
78905;BMP280;68291;49.602;8.722;2023-10-19T02:21:56;97688.16;;;16.57
78905;BMP280;68291;49.602;8.722;2023-10-19T02:24:39;97695.81;;;16.58
78905;BMP280;68291;49.602;8.722;2023-10-19T02:27:22;97693.03;;;16.60
78905;BMP280;68291;49.602;8.722;2023-10-19T02:30:09;97693.88;;;16.60
78905;BMP280;68291;49.602;8.722;2023-10-19T02:32:52;97677.97;;;16.63
78905;BMP280;68291;49.602;8.722;2023-10-19T02:35:58;97681.09;;;16.67
78905;BMP280;68291;49.602;8.722;2023-10-19T02:38:43;97670.25;;;16.71
78905;BMP280;68291;49.602;8.722;2023-10-19T02:41:24;97670.63;;;16.76
78905;BMP280;68291;49.602;8.722;2023-10-19T02:44:29;97670.16;;;16.80
78905;BMP280;68291;49.602;8.722;2023-10-19T02:47:10;97672.44;;;16.83
78905;BMP280;68291;49.602;8.722;2023-10-19T02:50:44;97659.44;;;16.83
78905;BMP280;68291;49.602;8.722;2023-10-19T02:53:42;97647.13;;;16.85
78905;BMP280;68291;49.602;8.722;2023-10-19T02:56:16;97655.56;;;16.87
78905;BMP280;68291;49.602;8.722;2023-10-19T02:59:05;97652.84;;;16.89
78905;BMP280;68291;49.602;8.722;2023-10-19T03:01:47;97656.91;;;16.91
78905;BMP280;68291;49.602;8.722;2023-10-19T03:04:37;97652.06;;;16.96
78905;BMP280;68291;49.602;8.722;2023-10-19T03:07:40;97652.72;;;16.98
78905;BMP280;68291;49.602;8.722;2023-10-19T03:10:14;97646.41;;;17.01
78905;BMP280;68291;49.602;8.722;2023-10-19T03:13:32;97656.66;;;17.02
78905;BMP280;68291;49.602;8.722;2023-10-19T03:16:31;97653.91;;;17.04
78905;BMP280;68291;49.602;8.722;2023-10-19T03:19:14;97643.38;;;17.05
78905;BMP280;68291;49.602;8.722;2023-10-19T03:21:46;97646.59;;;17.07
78905;BMP280;68291;49.602;8.722;2023-10-19T03:24:56;97649.06;;;17.09
78905;BMP280;68291;49.602;8.722;2023-10-19T03:27:44;97648.91;;;17.10
78905;BMP280;68291;49.602;8.722;2023-10-19T03:30:39;97645.66;;;17.08
78905;BMP280;68291;49.602;8.722;2023-10-19T03:33:36;97650.03;;;17.08
78905;BMP280;68291;49.602;8.722;2023-10-19T03:36:51;97632.97;;;17.05
78905;BMP280;68291;49.602;8.722;2023-10-19T03:39:41;97646.91;;;17.04
78905;BMP280;68291;49.602;8.722;2023-10-19T03:42:17;97634.59;;;17.06
78905;BMP280;68291;49.602;8.722;2023-10-19T03:44:54;97629.72;;;17.03
78905;BMP280;68291;49.602;8.722;2023-10-19T03:47:39;97634.91;;;17.03
78905;BMP280;68291;49.602;8.722;2023-10-19T03:50:24;97615.88;;;17.03
78905;BMP280;68291;49.602;8.722;2023-10-19T03:53:06;97608.25;;;17.01
78905;BMP280;68291;49.602;8.722;2023-10-19T03:56:05;97610.84;;;17.01
78905;BMP280;68291;49.602;8.722;2023-10-19T03:59:30;97610.53;;;17.04
78905;BMP280;68291;49.602;8.722;2023-10-19T04:02:18;97603.38;;;17.06
78905;BMP280;68291;49.602;8.722;2023-10-19T04:05:21;97605.53;;;17.11
78905;BMP280;68291;49.602;8.722;2023-10-19T04:08:04;97601.69;;;17.14
78905;BMP280;68291;49.602;8.722;2023-10-19T04:10:50;97587.41;;;17.18
78905;BMP280;68291;49.602;8.722;2023-10-19T04:13:35;97584.63;;;17.20
78905;BMP280;68291;49.602;8.722;2023-10-19T04:16:36;97582.69;;;17.22
78905;BMP280;68291;49.602;8.722;2023-10-19T04:19:38;97581.41;;;17.26
78905;BMP280;68291;49.602;8.722;2023-10-19T04:22:41;97577.66;;;17.28
78905;BMP280;68291;49.602;8.722;2023-10-19T04:25:27;97575.72;;;17.30
78905;BMP280;68291;49.602;8.722;2023-10-19T04:28:13;97577.38;;;17.31
78905;BMP280;68291;49.602;8.722;2023-10-19T04:30:57;97577.53;;;17.30
78905;BMP280;68291;49.602;8.722;2023-10-19T04:33:47;97578.81;;;17.26
78905;BMP280;68291;49.602;8.722;2023-10-19T04:36:37;97585.28;;;17.22
78905;BMP280;68291;49.602;8.722;2023-10-19T04:39:34;97572.94;;;17.16
78905;BMP280;68291;49.602;8.722;2023-10-19T04:42:23;97569.66;;;17.14
78905;BMP280;68291;49.602;8.722;2023-10-19T04:45:25;97573.19;;;17.13
78905;BMP280;68291;49.602;8.722;2023-10-19T04:48:06;97576.78;;;17.12
78905;BMP280;68291;49.602;8.722;2023-10-19T04:51:24;97569.59;;;17.06
78905;BMP280;68291;49.602;8.722;2023-10-19T04:53:57;97571.53;;;17.04
78905;BMP280;68291;49.602;8.722;2023-10-19T04:56:30;97567.44;;;17.02
78905;BMP280;68291;49.602;8.722;2023-10-19T04:59:12;97579.13;;;16.98
78905;BMP280;68291;49.602;8.722;2023-10-19T05:02:00;97576.19;;;16.93
78905;BMP280;68291;49.602;8.722;2023-10-19T05:05:16;97568.34;;;16.85
78905;BMP280;68291;49.602;8.722;2023-10-19T05:08:56;97571.06;;;16.76
78905;BMP280;68291;49.602;8.722;2023-10-19T05:11:48;97569.56;;;16.73
78905;BMP280;68291;49.602;8.722;2023-10-19T05:14:33;97577.19;;;16.75
78905;BMP280;68291;49.602;8.722;2023-10-19T05:17:12;97569.25;;;16.76
78905;BMP280;68291;49.602;8.722;2023-10-19T05:19:53;97563.25;;;16.76
78905;BMP280;68291;49.602;8.722;2023-10-19T05:22:32;97564.53;;;16.72
78905;BMP280;68291;49.602;8.722;2023-10-19T05:25:21;97564.38;;;16.73
78905;BMP280;68291;49.602;8.722;2023-10-19T05:27:55;97570.38;;;16.74
78905;BMP280;68291;49.602;8.722;2023-10-19T05:30:36;97570.38;;;16.74
78905;BMP280;68291;49.602;8.722;2023-10-19T05:33:32;97575.59;;;16.74
78905;BMP280;68291;49.602;8.722;2023-10-19T05:36:12;97576.53;;;16.73
78905;BMP280;68291;49.602;8.722;2023-10-19T05:39:02;97572.47;;;16.70
78905;BMP280;68291;49.602;8.722;2023-10-19T05:42:33;97566.13;;;16.65
78905;BMP280;68291;49.602;8.722;2023-10-19T05:45:17;97578.59;;;16.61
78905;BMP280;68291;49.602;8.722;2023-10-19T05:48:14;97567.19;;;16.54
78905;BMP280;68291;49.602;8.722;2023-10-19T05:51:19;97572.97;;;16.48
78905;BMP280;68291;49.602;8.722;2023-10-19T05:54:15;97572.63;;;16.44
78905;BMP280;68291;49.602;8.722;2023-10-19T05:57:04;97576.34;;;16.41
78905;BMP280;68291;49.602;8.722;2023-10-19T06:00:01;97581.69;;;16.40
78905;BMP280;68291;49.602;8.722;2023-10-19T06:02:43;97567.06;;;16.39
78905;BMP280;68291;49.602;8.722;2023-10-19T06:05:16;97576.63;;;16.38
78905;BMP280;68291;49.602;8.722;2023-10-19T06:08:15;97575.28;;;16.34
78905;BMP280;68291;49.602;8.722;2023-10-19T06:10:55;97579.97;;;16.31
78905;BMP280;68291;49.602;8.722;2023-10-19T06:14:07;97594.53;;;16.24
78905;BMP280;68291;49.602;8.722;2023-10-19T06:17:23;97595.94;;;16.18
78905;BMP280;68291;49.602;8.722;2023-10-19T06:20:01;97594.31;;;16.17
78905;BMP280;68291;49.602;8.722;2023-10-19T06:22:55;97596.59;;;16.20
78905;BMP280;68291;49.602;8.722;2023-10-19T06:26:10;97589.81;;;16.19
78905;BMP280;68291;49.602;8.722;2023-10-19T06:29:21;97586.22;;;16.20
78905;BMP280;68291;49.602;8.722;2023-10-19T06:31:59;97585.09;;;16.23
78905;BMP280;68291;49.602;8.722;2023-10-19T06:34:50;97585.63;;;16.26
78905;BMP280;68291;49.602;8.722;2023-10-19T06:37:43;97587.78;;;16.31
78905;BMP280;68291;49.602;8.722;2023-10-19T06:40:27;97588.00;;;16.37
78905;BMP280;68291;49.602;8.722;2023-10-19T06:43:11;97587.41;;;16.43
78905;BMP280;68291;49.602;8.722;2023-10-19T06:45:57;97583.06;;;16.51
78905;BMP280;68291;49.602;8.722;2023-10-19T06:48:43;97586.53;;;16.60
78905;BMP280;68291;49.602;8.722;2023-10-19T06:51:32;97583.97;;;16.68
78905;BMP280;68291;49.602;8.722;2023-10-19T06:54:27;97594.78;;;16.80
78905;BMP280;68291;49.602;8.722;2023-10-19T06:57:23;97593.56;;;16.92
78905;BMP280;68291;49.602;8.722;2023-10-19T07:00:08;97591.38;;;17.05
78905;BMP280;68291;49.602;8.722;2023-10-19T07:02:54;97587.06;;;17.21
78905;BMP280;68291;49.602;8.722;2023-10-19T07:05:34;97585.50;;;17.36
78905;BMP280;68291;49.602;8.722;2023-10-19T07:08:22;97582.97;;;17.52
78905;BMP280;68291;49.602;8.722;2023-10-19T07:11:06;97576.34;;;17.65
78905;BMP280;68291;49.602;8.722;2023-10-19T07:13:42;97574.25;;;17.77
78905;BMP280;68291;49.602;8.722;2023-10-19T07:16:31;97574.09;;;17.86
78905;BMP280;68291;49.602;8.722;2023-10-19T07:19:17;97569.88;;;17.93
78905;BMP280;68291;49.602;8.722;2023-10-19T07:21:58;97565.69;;;18.00
78905;BMP280;68291;49.602;8.722;2023-10-19T07:24:48;97574.50;;;18.07
78905;BMP280;68291;49.602;8.722;2023-10-19T07:27:40;97574.81;;;18.12
78905;BMP280;68291;49.602;8.722;2023-10-19T07:30:38;97571.25;;;18.13
78905;BMP280;68291;49.602;8.722;2023-10-19T07:33:34;97567.03;;;18.19
78905;BMP280;68291;49.602;8.722;2023-10-19T07:36:26;97569.59;;;18.27
78905;BMP280;68291;49.602;8.722;2023-10-19T07:39:14;97564.56;;;18.34
78905;BMP280;68291;49.602;8.722;2023-10-19T07:42:32;97563.91;;;18.40
78905;BMP280;68291;49.602;8.722;2023-10-19T07:45:07;97559.84;;;18.45
78905;BMP280;68291;49.602;8.722;2023-10-19T07:47:42;97562.63;;;18.52
78905;BMP280;68291;49.602;8.722;2023-10-19T07:50:20;97557.88;;;18.55
78905;BMP280;68291;49.602;8.722;2023-10-19T07:53:18;97559.19;;;18.59
78905;BMP280;68291;49.602;8.722;2023-10-19T07:56:17;97550.19;;;18.61
78905;BMP280;68291;49.602;8.722;2023-10-19T07:59:17;97553.97;;;18.67
78905;BMP280;68291;49.602;8.722;2023-10-19T08:02:30;97554.91;;;18.74
78905;BMP280;68291;49.602;8.722;2023-10-19T08:05:12;97552.63;;;18.79
78905;BMP280;68291;49.602;8.722;2023-10-19T08:07:54;97551.31;;;18.83
78905;BMP280;68291;49.602;8.722;2023-10-19T08:10:37;97538.91;;;18.85
78905;BMP280;68291;49.602;8.722;2023-10-19T08:13:19;97551.00;;;18.86
78905;BMP280;68291;49.602;8.722;2023-10-19T08:16:42;97556.88;;;18.80
78905;BMP280;68291;49.602;8.722;2023-10-19T08:19:15;97546.75;;;18.77
78905;BMP280;68291;49.602;8.722;2023-10-19T08:21:48;97551.66;;;18.80
78905;BMP280;68291;49.602;8.722;2023-10-19T08:24:33;97554.56;;;18.85
78905;BMP280;68291;49.602;8.722;2023-10-19T08:27:39;97552.63;;;18.94
78905;BMP280;68291;49.602;8.722;2023-10-19T08:30:30;97550.31;;;19.07
78905;BMP280;68291;49.602;8.722;2023-10-19T08:33:37;97553.19;;;19.20
78905;BMP280;68291;49.602;8.722;2023-10-19T08:36:19;97548.25;;;19.33
78905;BMP280;68291;49.602;8.722;2023-10-19T08:39:05;97551.72;;;19.48
78905;BMP280;68291;49.602;8.722;2023-10-19T08:41:49;97548.25;;;19.63
78905;BMP280;68291;49.602;8.722;2023-10-19T08:44:30;97534.97;;;19.80
78905;BMP280;68291;49.602;8.722;2023-10-19T08:47:15;97534.94;;;20.02
78905;BMP280;68291;49.602;8.722;2023-10-19T08:50:19;97515.19;;;20.22
78905;BMP280;68291;49.602;8.722;2023-10-19T08:53:10;97515.03;;;20.38
78905;BMP280;68291;49.602;8.722;2023-10-19T08:56:10;97516.41;;;20.48
78905;BMP280;68291;49.602;8.722;2023-10-19T08:58:54;97515.34;;;20.57
78905;BMP280;68291;49.602;8.722;2023-10-19T09:01:33;97514.34;;;20.66
78905;BMP280;68291;49.602;8.722;2023-10-19T09:04:18;97513.97;;;20.69
78905;BMP280;68291;49.602;8.722;2023-10-19T09:07:35;97513.16;;;20.68
78905;BMP280;68291;49.602;8.722;2023-10-19T09:10:08;97513.16;;;20.68
78905;BMP280;68291;49.602;8.722;2023-10-19T09:13:00;97509.09;;;20.66
78905;BMP280;68291;49.602;8.722;2023-10-19T09:15:32;97503.03;;;20.65
78905;BMP280;68291;49.602;8.722;2023-10-19T09:18:24;97511.53;;;20.67
78905;BMP280;68291;49.602;8.722;2023-10-19T09:21:08;97501.53;;;20.71
78905;BMP280;68291;49.602;8.722;2023-10-19T09:24:39;97510.19;;;20.71
78905;BMP280;68291;49.602;8.722;2023-10-19T09:27:26;97512.25;;;20.76
78905;BMP280;68291;49.602;8.722;2023-10-19T09:30:10;97511.72;;;20.80
78905;BMP280;68291;49.602;8.722;2023-10-19T09:32:48;97504.97;;;20.86
78905;BMP280;68291;49.602;8.722;2023-10-19T09:35:33;97498.38;;;20.90
78905;BMP280;68291;49.602;8.722;2023-10-19T09:38:18;97501.25;;;20.94
78905;BMP280;68291;49.602;8.722;2023-10-19T09:41:15;97497.94;;;21.00
78905;BMP280;68291;49.602;8.722;2023-10-19T09:44:07;97497.16;;;21.06
78905;BMP280;68291;49.602;8.722;2023-10-19T09:46:49;97488.59;;;21.12
78905;BMP280;68291;49.602;8.722;2023-10-19T09:49:43;97485.25;;;21.18
78905;BMP280;68291;49.602;8.722;2023-10-19T09:52:33;97477.50;;;21.25
78905;BMP280;68291;49.602;8.722;2023-10-19T09:55:28;97479.56;;;21.29
78905;BMP280;68291;49.602;8.722;2023-10-19T09:58:37;97476.38;;;21.33
78905;BMP280;68291;49.602;8.722;2023-10-19T10:01:13;97469.91;;;21.44
78905;BMP280;68291;49.602;8.722;2023-10-19T10:03:54;97470.22;;;21.55
78905;BMP280;68291;49.602;8.722;2023-10-19T10:06:59;97478.13;;;21.62
78905;BMP280;68291;49.602;8.722;2023-10-19T10:09:46;97474.34;;;21.64
78905;BMP280;68291;49.602;8.722;2023-10-19T10:12:28;97476.38;;;21.68
78905;BMP280;68291;49.602;8.722;2023-10-19T10:16:00;97477.66;;;21.72
78905;BMP280;68291;49.602;8.722;2023-10-19T10:18:48;97473.28;;;21.79
78905;BMP280;68291;49.602;8.722;2023-10-19T10:21:33;97478.78;;;21.84
78905;BMP280;68291;49.602;8.722;2023-10-19T10:24:20;97460.06;;;21.87
78905;BMP280;68291;49.602;8.722;2023-10-19T10:27:18;97473.78;;;21.89
78905;BMP280;68291;49.602;8.722;2023-10-19T10:30:05;97464.28;;;21.88
78905;BMP280;68291;49.602;8.722;2023-10-19T10:33:02;97461.06;;;21.86
78905;BMP280;68291;49.602;8.722;2023-10-19T10:36:08;97474.78;;;21.88
78905;BMP280;68291;49.602;8.722;2023-10-19T10:39:09;97474.97;;;21.87
78905;BMP280;68291;49.602;8.722;2023-10-19T10:41:55;97471.34;;;21.88
78905;BMP280;68291;49.602;8.722;2023-10-19T10:44:43;97474.78;;;21.88
78905;BMP280;68291;49.602;8.722;2023-10-19T10:47:58;97462.44;;;21.82
78905;BMP280;68291;49.602;8.722;2023-10-19T10:53:59;97474.78;;;21.88
78905;BMP280;68291;49.602;8.722;2023-10-19T10:56:41;97465.53;;;21.92
78905;BMP280;68291;49.602;8.722;2023-10-19T10:59:28;97463.19;;;21.97
78905;BMP280;68291;49.602;8.722;2023-10-19T11:02:00;97467.03;;;22.01
78905;BMP280;68291;49.602;8.722;2023-10-19T11:04:46;97462.78;;;22.00
78905;BMP280;68291;49.602;8.722;2023-10-19T11:07:28;97468.78;;;21.94
78905;BMP280;68291;49.602;8.722;2023-10-19T11:10:10;97467.13;;;21.87
78905;BMP280;68291;49.602;8.722;2023-10-19T11:12:49;97458.38;;;21.80
78905;BMP280;68291;49.602;8.722;2023-10-19T11:15:37;97455.94;;;21.78
78905;BMP280;68291;49.602;8.722;2023-10-19T11:18:42;97455.31;;;21.76
78905;BMP280;68291;49.602;8.722;2023-10-19T11:21:54;97454.94;;;21.79
78905;BMP280;68291;49.602;8.722;2023-10-19T11:24:47;97460.00;;;21.81
78905;BMP280;68291;49.602;8.722;2023-10-19T11:28:21;97455.09;;;21.71
78905;BMP280;68291;49.602;8.722;2023-10-19T11:31:14;97450.97;;;21.63
78905;BMP280;68291;49.602;8.722;2023-10-19T11:34:06;97457.19;;;21.62
78905;BMP280;68291;49.602;8.722;2023-10-19T11:37:02;97447.34;;;21.63
78905;BMP280;68291;49.602;8.722;2023-10-19T11:39:51;97446.16;;;21.66
78905;BMP280;68291;49.602;8.722;2023-10-19T11:42:23;97446.16;;;21.66
78905;BMP280;68291;49.602;8.722;2023-10-19T11:45:09;97441.53;;;21.68
78905;BMP280;68291;49.602;8.722;2023-10-19T11:47:49;97442.16;;;21.70
78905;BMP280;68291;49.602;8.722;2023-10-19T11:50:36;97442.78;;;21.72
78905;BMP280;68291;49.602;8.722;2023-10-19T11:53:21;97433.91;;;21.73
78905;BMP280;68291;49.602;8.722;2023-10-19T11:56:09;97438.34;;;21.72
78905;BMP280;68291;49.602;8.722;2023-10-19T11:58:55;97430.59;;;21.64
78905;BMP280;68291;49.602;8.722;2023-10-19T12:01:44;97429.75;;;21.58
78905;BMP280;68291;49.602;8.722;2023-10-19T12:04:22;97425.88;;;21.54
78905;BMP280;68291;49.602;8.722;2023-10-19T12:07:01;97415.59;;;21.52
78905;BMP280;68291;49.602;8.722;2023-10-19T12:09:38;97405.13;;;21.52
78905;BMP280;68291;49.602;8.722;2023-10-19T12:12:24;97407.47;;;21.47
78905;BMP280;68291;49.602;8.722;2023-10-19T12:15:31;97397.94;;;21.40
78905;BMP280;68291;49.602;8.722;2023-10-19T12:18:40;97392.78;;;21.32
78905;BMP280;68291;49.602;8.722;2023-10-19T12:21:36;97386.31;;;21.28
78905;BMP280;68291;49.602;8.722;2023-10-19T12:24:20;97381.44;;;21.25
78905;BMP280;68291;49.602;8.722;2023-10-19T12:27:26;97390.41;;;21.16
78905;BMP280;68291;49.602;8.722;2023-10-19T12:30:21;97380.59;;;21.04
78905;BMP280;68291;49.602;8.722;2023-10-19T12:33:18;97375.44;;;20.90
78905;BMP280;68291;49.602;8.722;2023-10-19T12:36:44;97375.69;;;20.80
78905;BMP280;68291;49.602;8.722;2023-10-19T12:39:26;97384.28;;;20.74
78905;BMP280;68291;49.602;8.722;2023-10-19T12:42:29;97387.97;;;20.65
78905;BMP280;68291;49.602;8.722;2023-10-19T12:45:28;97385.19;;;20.67
78905;BMP280;68291;49.602;8.722;2023-10-19T12:48:17;97384.47;;;20.73
78905;BMP280;68291;49.602;8.722;2023-10-19T12:51:12;97379.41;;;20.71
78905;BMP280;68291;49.602;8.722;2023-10-19T12:54:26;97393.97;;;20.60
78905;BMP280;68291;49.602;8.722;2023-10-19T12:57:17;97398.78;;;20.48
78905;BMP280;68291;49.602;8.722;2023-10-19T12:59:57;97407.81;;;20.46
78905;BMP280;68291;49.602;8.722;2023-10-19T13:03:07;97390.50;;;20.45
78905;BMP280;68291;49.602;8.722;2023-10-19T13:06:02;97396.53;;;20.45
78905;BMP280;68291;49.602;8.722;2023-10-19T13:09:19;97408.16;;;20.43
78905;BMP280;68291;49.602;8.722;2023-10-19T13:12:05;97399.22;;;20.37
78905;BMP280;68291;49.602;8.722;2023-10-19T13:14:46;97392.72;;;20.33
78905;BMP280;68291;49.602;8.722;2023-10-19T13:17:32;97394.38;;;20.34
78905;BMP280;68291;49.602;8.722;2023-10-19T13:20:18;97399.13;;;20.31
78905;BMP280;68291;49.602;8.722;2023-10-19T13:23:05;97394.13;;;20.29
78905;BMP280;68291;49.602;8.722;2023-10-19T13:25:44;97392.84;;;20.25
78905;BMP280;68291;49.602;8.722;2023-10-19T13:28:42;97395.53;;;20.18
78905;BMP280;68291;49.602;8.722;2023-10-19T13:31:16;97401.66;;;20.10
78905;BMP280;68291;49.602;8.722;2023-10-19T13:34:05;97399.38;;;20.07
78905;BMP280;68291;49.602;8.722;2023-10-19T13:37:00;97393.34;;;20.07
78905;BMP280;68291;49.602;8.722;2023-10-19T13:39:35;97388.78;;;20.09
78905;BMP280;68291;49.602;8.722;2023-10-19T13:42:21;97393.63;;;20.12
78905;BMP280;68291;49.602;8.722;2023-10-19T13:45:12;97391.00;;;20.12
78905;BMP280;68291;49.602;8.722;2023-10-19T13:48:00;97388.78;;;20.09
78905;BMP280;68291;49.602;8.722;2023-10-19T13:50:47;97388.78;;;20.09
78905;BMP280;68291;49.602;8.722;2023-10-19T13:53:29;97387.13;;;20.08
78905;BMP280;68291;49.602;8.722;2023-10-19T13:56:23;97372.63;;;20.05
78905;BMP280;68291;49.602;8.722;2023-10-19T13:59:03;97376.69;;;20.08
78905;BMP280;68291;49.602;8.722;2023-10-19T14:01:44;97375.16;;;20.13
78905;BMP280;68291;49.602;8.722;2023-10-19T14:04:32;97366.69;;;20.11
78905;BMP280;68291;49.602;8.722;2023-10-19T14:07:32;97364.09;;;20.11
78905;BMP280;68291;49.602;8.722;2023-10-19T14:10:48;97363.09;;;20.12
78905;BMP280;68291;49.602;8.722;2023-10-19T14:13:45;97355.69;;;20.16
78905;BMP280;68291;49.602;8.722;2023-10-19T14:16:34;97346.34;;;20.21
78905;BMP280;68291;49.602;8.722;2023-10-19T14:19:19;97346.06;;;20.30
78905;BMP280;68291;49.602;8.722;2023-10-19T14:22:34;97331.91;;;20.39
78905;BMP280;68291;49.602;8.722;2023-10-19T14:25:21;97325.97;;;20.45
78905;BMP280;68291;49.602;8.722;2023-10-19T14:28:10;97324.31;;;20.44
78905;BMP280;68291;49.602;8.722;2023-10-19T14:31:00;97306.03;;;20.44
78905;BMP280;68291;49.602;8.722;2023-10-19T14:33:46;97300.44;;;20.47
78905;BMP280;68291;49.602;8.722;2023-10-19T14:36:53;97282.72;;;20.43
78905;BMP280;68291;49.602;8.722;2023-10-19T14:39:35;97271.53;;;20.34
78905;BMP280;68291;49.602;8.722;2023-10-19T14:42:17;97254.22;;;20.33
78905;BMP280;68291;49.602;8.722;2023-10-19T14:45:10;97239.09;;;20.29
78905;BMP280;68291;49.602;8.722;2023-10-19T14:48:01;97229.03;;;20.26
78905;BMP280;68291;49.602;8.722;2023-10-19T14:50:40;97240.66;;;20.24
78905;BMP280;68291;49.602;8.722;2023-10-19T14:53:30;97252.28;;;20.21
78905;BMP280;68291;49.602;8.722;2023-10-19T14:56:26;97252.28;;;20.21
78905;BMP280;68291;49.602;8.722;2023-10-19T14:59:09;97265.06;;;20.16
78905;BMP280;68291;49.602;8.722;2023-10-19T15:01:55;97247.31;;;20.12
78905;BMP280;68291;49.602;8.722;2023-10-19T15:04:42;97236.88;;;20.12
78905;BMP280;68291;49.602;8.722;2023-10-19T15:07:28;97232.09;;;20.15
78905;BMP280;68291;49.602;8.722;2023-10-19T15:10:51;97177.41;;;20.14
78905;BMP280;68291;49.602;8.722;2023-10-19T15:13:53;97192.47;;;20.12
78905;BMP280;68291;49.602;8.722;2023-10-19T15:16:39;97176.91;;;20.04
78905;BMP280;68291;49.602;8.722;2023-10-19T15:19:24;97162.38;;;20.01
78905;BMP280;68291;49.602;8.722;2023-10-19T15:22:12;97180.50;;;20.03
78905;BMP280;68291;49.602;8.722;2023-10-19T15:25:01;97190.69;;;19.98
78905;BMP280;68291;49.602;8.722;2023-10-19T15:28:06;97187.72;;;20.01
78905;BMP280;68291;49.602;8.722;2023-10-19T15:30:55;97181.38;;;20.10
78905;BMP280;68291;49.602;8.722;2023-10-19T15:33:36;97182.63;;;20.14
78905;BMP280;68291;49.602;8.722;2023-10-19T15:36:17;97172.56;;;20.11
78905;BMP280;68291;49.602;8.722;2023-10-19T15:39:16;97176.16;;;20.10
78905;BMP280;68291;49.602;8.722;2023-10-19T15:42:24;97158.50;;;20.12
78905;BMP280;68291;49.602;8.722;2023-10-19T15:45:16;97148.31;;;20.17
78905;BMP280;68291;49.602;8.722;2023-10-19T15:47:56;97129.28;;;20.23
78905;BMP280;68291;49.602;8.722;2023-10-19T15:50:48;97125.31;;;20.26
78905;BMP280;68291;49.602;8.722;2023-10-19T15:53:34;97142.22;;;20.30
78905;BMP280;68291;49.602;8.722;2023-10-19T15:56:14;97149.38;;;20.22
78905;BMP280;68291;49.602;8.722;2023-10-19T15:59:06;97165.28;;;20.06
78905;BMP280;68291;49.602;8.722;2023-10-19T16:02:34;97157.84;;;19.89
78905;BMP280;68291;49.602;8.722;2023-10-19T16:05:37;97134.25;;;19.83
78905;BMP280;68291;49.602;8.722;2023-10-19T16:08:18;97121.56;;;19.80
78905;BMP280;68291;49.602;8.722;2023-10-19T16:11:04;97137.47;;;19.70
78905;BMP280;68291;49.602;8.722;2023-10-19T16:14:00;97146.50;;;19.54
78905;BMP280;68291;49.602;8.722;2023-10-19T16:16:44;97154.44;;;19.46
78905;BMP280;68291;49.602;8.722;2023-10-19T16:19:43;97175.13;;;19.33
78905;BMP280;68291;49.602;8.722;2023-10-19T16:22:25;97175.56;;;19.22
78905;BMP280;68291;49.602;8.722;2023-10-19T16:25:22;97172.84;;;19.16
78905;BMP280;68291;49.602;8.722;2023-10-19T16:27:59;97165.91;;;19.08
78905;BMP280;68291;49.602;8.722;2023-10-19T16:30:46;97156.16;;;19.02
78905;BMP280;68291;49.602;8.722;2023-10-19T16:33:42;97159.66;;;18.95